createdAt,value
2018-11-01T00:00:04.183Z,0.00
2018-11-01T00:01:04.176Z,0.00
2018-11-01T00:02:04.164Z,0.00
2018-11-01T00:03:04.160Z,0.00
2018-11-01T00:04:04.157Z,0.00
2018-11-01T00:05:04.148Z,0.00
2018-11-01T00:06:04.143Z,0.00
2018-11-01T00:07:04.139Z,0.00
2018-11-01T00:08:04.134Z,0.00
2018-11-01T00:09:04.124Z,0.00
2018-11-01T00:10:04.116Z,0.00
2018-11-01T00:11:04.108Z,0.00
2018-11-01T00:12:04.104Z,0.00
2018-11-01T00:13:04.096Z,0.00
2018-11-01T00:14:04.091Z,0.00
2018-11-01T00:15:04.082Z,0.00
2018-11-01T00:16:04.083Z,0.00
2018-11-01T00:17:04.068Z,0.00
2018-11-01T00:18:04.065Z,0.00
2018-11-01T00:19:04.066Z,0.00
2018-11-01T00:20:04.050Z,0.00
2018-11-01T00:21:04.042Z,0.00
2018-11-01T00:22:04.036Z,0.00
2018-11-01T00:23:04.034Z,0.00
2018-11-01T00:24:04.024Z,0.00
2018-11-01T00:25:04.017Z,0.00
2018-11-01T00:26:04.011Z,0.00
2018-11-01T00:27:04.008Z,0.00
2018-11-01T00:28:03.998Z,0.00
2018-11-01T00:29:03.990Z,0.00
2018-11-01T00:30:03.986Z,0.00
2018-11-01T00:31:03.979Z,0.00
2018-11-01T00:32:03.981Z,0.00
2018-11-01T00:33:03.963Z,0.00
2018-11-01T00:34:03.972Z,0.00
2018-11-01T00:35:03.952Z,0.00
2018-11-01T00:36:03.955Z,0.00
2018-11-01T00:37:03.940Z,0.00
2018-11-01T00:38:03.936Z,0.00
2018-11-01T00:39:03.924Z,0.00
2018-11-01T00:40:03.923Z,0.00
2018-11-01T00:41:03.911Z,0.00
2018-11-01T00:42:03.906Z,0.00
2018-11-01T00:43:03.897Z,0.00
2018-11-01T00:44:03.891Z,0.00
2018-11-01T00:45:03.884Z,0.00
2018-11-01T00:46:03.880Z,0.00
2018-11-01T00:47:03.873Z,0.00
2018-11-01T00:48:03.865Z,0.00
2018-11-01T00:49:03.859Z,0.00
2018-11-01T00:50:03.856Z,0.00
2018-11-01T00:51:03.846Z,0.00
2018-11-01T00:52:03.838Z,0.00
2018-11-01T00:53:03.832Z,0.00
2018-11-01T00:54:03.824Z,0.00
2018-11-01T00:55:03.817Z,0.00
2018-11-01T00:56:03.812Z,0.00
2018-11-01T00:57:03.805Z,0.00
2018-11-01T00:58:03.796Z,0.00
2018-11-01T00:59:03.792Z,0.00
2018-11-01T01:00:03.786Z,0.00
2018-11-01T01:01:03.777Z,0.00
2018-11-01T01:02:03.774Z,0.00
2018-11-01T01:03:03.765Z,0.00
2018-11-01T01:04:03.759Z,0.00
2018-11-01T01:05:03.754Z,0.00
2018-11-01T01:06:03.744Z,0.00
2018-11-01T01:07:03.738Z,0.00
2018-11-01T01:08:03.744Z,0.00
2018-11-01T01:09:03.725Z,0.00
2018-11-01T01:10:03.717Z,0.00
2018-11-01T01:11:03.735Z,0.00
2018-11-01T01:12:03.705Z,0.00
2018-11-01T01:13:03.698Z,0.00
2018-11-01T01:14:03.690Z,0.00
2018-11-01T01:15:03.687Z,0.00
2018-11-01T01:16:03.677Z,0.00
2018-11-01T01:17:03.672Z,0.00
2018-11-01T01:18:03.665Z,0.00
2018-11-01T01:19:03.742Z,0.00
2018-11-01T01:20:03.652Z,0.00
2018-11-01T01:21:03.642Z,0.00
2018-11-01T01:22:03.635Z,0.00
2018-11-01T01:23:03.631Z,0.00
2018-11-01T01:24:03.623Z,0.00
2018-11-01T01:25:03.615Z,0.00
2018-11-01T01:26:03.609Z,0.00
2018-11-01T01:27:03.618Z,0.00
2018-11-01T01:28:03.598Z,0.00
2018-11-01T01:29:03.591Z,0.00
2018-11-01T01:30:03.582Z,0.00
2018-11-01T01:31:03.598Z,0.00
2018-11-01T01:32:03.568Z,0.00
2018-11-01T01:33:03.603Z,0.00
2018-11-01T01:34:03.556Z,0.00
2018-11-01T01:35:03.548Z,0.00
2018-11-01T01:36:03.548Z,0.00
2018-11-01T01:37:03.539Z,0.00
2018-11-01T01:38:03.528Z,0.00
2018-11-01T01:39:03.519Z,0.00
2018-11-01T01:40:03.517Z,0.00
2018-11-01T01:41:03.506Z,0.00
2018-11-01T01:42:03.503Z,0.00
2018-11-01T01:43:03.493Z,0.00
2018-11-01T01:44:03.491Z,0.00
2018-11-01T01:45:03.479Z,0.00
2018-11-01T01:46:03.473Z,0.00
2018-11-01T01:47:03.466Z,0.00
2018-11-01T01:48:03.463Z,0.00
2018-11-01T01:49:03.454Z,0.00
2018-11-01T01:50:03.447Z,0.00
2018-11-01T01:51:03.441Z,0.00
2018-11-01T01:52:03.432Z,0.00
2018-11-01T01:53:03.428Z,0.00
2018-11-01T01:54:03.420Z,0.00
2018-11-01T01:55:03.423Z,0.00
2018-11-01T01:56:03.404Z,0.00
2018-11-01T01:57:03.400Z,0.00
2018-11-01T01:58:03.391Z,0.00
2018-11-01T01:59:03.384Z,0.00
2018-11-01T02:00:03.376Z,0.00
2018-11-01T02:01:03.373Z,0.00
2018-11-01T02:02:03.392Z,0.00
2018-11-01T02:03:03.355Z,0.00
2018-11-01T02:04:03.379Z,0.00
2018-11-01T02:05:03.348Z,0.00
2018-11-01T02:06:03.335Z,0.00
2018-11-01T02:07:03.344Z,0.00
2018-11-01T02:08:03.336Z,0.00
2018-11-01T02:09:03.313Z,0.00
2018-11-01T02:10:03.309Z,0.00
2018-11-01T02:11:03.331Z,0.00
2018-11-01T02:12:03.293Z,0.00
2018-11-01T02:13:03.285Z,0.00
2018-11-01T02:14:03.279Z,0.00
2018-11-01T02:15:03.275Z,0.00
2018-11-01T02:16:03.285Z,0.00
2018-11-01T02:17:03.262Z,0.00
2018-11-01T02:18:03.264Z,0.00
2018-11-01T02:19:03.259Z,0.00
2018-11-01T02:20:03.274Z,0.00
2018-11-01T02:21:03.232Z,0.00
2018-11-01T02:22:03.226Z,0.00
2018-11-01T02:23:03.217Z,0.00
2018-11-01T02:24:03.217Z,0.00
2018-11-01T02:25:03.217Z,0.00
2018-11-01T02:26:03.201Z,0.00
2018-11-01T02:27:03.189Z,0.00
2018-11-01T02:28:03.205Z,0.00
2018-11-01T02:29:03.188Z,0.00
2018-11-01T02:30:03.171Z,0.00
2018-11-01T02:31:03.164Z,0.00
2018-11-01T02:32:03.172Z,0.00
2018-11-01T02:33:03.159Z,0.00
2018-11-01T02:34:03.189Z,0.00
2018-11-01T02:35:03.140Z,0.00
2018-11-01T02:36:03.134Z,0.00
2018-11-01T02:37:03.123Z,0.00
2018-11-01T02:38:03.247Z,0.00
2018-11-01T02:39:03.105Z,0.00
2018-11-01T02:40:03.098Z,0.00
2018-11-01T02:41:03.091Z,0.00
2018-11-01T02:42:03.085Z,0.00
2018-11-01T02:43:03.080Z,0.00
2018-11-01T02:44:03.072Z,0.00
2018-11-01T02:45:03.064Z,0.00
2018-11-01T02:46:03.057Z,0.00
2018-11-01T02:47:03.049Z,0.00
2018-11-01T02:48:03.045Z,0.00
2018-11-01T02:49:03.034Z,0.00
2018-11-01T02:50:03.031Z,0.00
2018-11-01T02:51:03.022Z,0.00
2018-11-01T02:52:03.014Z,0.00
2018-11-01T02:53:03.005Z,0.00
2018-11-01T02:54:02.999Z,0.00
2018-11-01T02:55:02.991Z,0.00
2018-11-01T02:56:02.984Z,0.00
2018-11-01T02:57:02.976Z,0.00
2018-11-01T02:58:02.976Z,0.00
2018-11-01T02:59:02.964Z,0.00
2018-11-01T03:00:02.964Z,0.00
2018-11-01T03:01:02.948Z,0.00
2018-11-01T03:02:02.944Z,0.00
2018-11-01T03:03:02.936Z,0.00
2018-11-01T03:04:02.928Z,0.00
2018-11-01T03:05:02.919Z,0.00
2018-11-01T03:06:02.918Z,0.00
2018-11-01T03:07:02.906Z,0.00
2018-11-01T03:08:02.900Z,0.00
2018-11-01T03:09:02.891Z,0.00
2018-11-01T03:10:02.888Z,0.00
2018-11-01T03:11:02.880Z,0.00
2018-11-01T03:12:02.870Z,0.00
2018-11-01T03:13:02.864Z,0.00
2018-11-01T03:14:02.855Z,0.00
2018-11-01T03:15:02.848Z,0.00
2018-11-01T03:16:02.847Z,0.00
2018-11-01T03:17:02.898Z,0.00
2018-11-01T03:18:02.826Z,0.00
2018-11-01T03:19:02.818Z,0.00
2018-11-01T03:20:02.817Z,0.00
2018-11-01T03:21:02.804Z,0.00
2018-11-01T03:22:02.796Z,0.00
2018-11-01T03:23:02.788Z,0.00
2018-11-01T03:24:02.787Z,0.00
2018-11-01T03:25:02.776Z,0.00
2018-11-01T03:26:02.766Z,0.00
2018-11-01T03:27:02.764Z,0.00
2018-11-01T03:28:02.753Z,0.00
2018-11-01T03:29:02.748Z,0.00
2018-11-01T03:30:02.745Z,0.00
2018-11-01T03:31:02.732Z,0.00
2018-11-01T03:32:02.726Z,0.00
2018-11-01T03:33:02.731Z,0.00
2018-11-01T03:34:02.724Z,0.00
2018-11-01T03:35:02.709Z,0.00
2018-11-01T03:36:02.696Z,0.00
2018-11-01T03:37:02.690Z,0.00
2018-11-01T03:38:02.750Z,0.00
2018-11-01T03:39:02.752Z,0.00
2018-11-01T03:40:02.669Z,0.00
2018-11-01T03:41:02.658Z,0.00
2018-11-01T03:42:02.650Z,0.00
2018-11-01T03:43:02.643Z,0.00
2018-11-01T03:44:02.637Z,0.00
2018-11-01T03:45:02.636Z,0.00
2018-11-01T03:46:02.629Z,0.00
2018-11-01T03:47:02.618Z,0.00
2018-11-01T03:48:02.615Z,0.00
2018-11-01T03:49:02.605Z,0.00
2018-11-01T03:50:02.593Z,0.00
2018-11-01T03:51:02.584Z,0.00
2018-11-01T03:52:02.694Z,0.00
2018-11-01T03:53:02.574Z,0.00
2018-11-01T03:54:02.565Z,0.00
2018-11-01T03:55:02.558Z,0.00
2018-11-01T03:56:02.555Z,0.00
2018-11-01T03:57:02.539Z,0.00
2018-11-01T03:58:02.537Z,0.00
2018-11-01T03:59:02.619Z,0.00
2018-11-01T04:00:02.525Z,0.00
2018-11-01T04:01:02.512Z,0.00
2018-11-01T04:02:02.513Z,0.00
2018-11-01T04:03:02.497Z,0.00
2018-11-01T04:04:02.534Z,0.00
2018-11-01T04:05:02.484Z,0.00
2018-11-01T04:06:02.479Z,0.00
2018-11-01T04:07:02.468Z,0.00
2018-11-01T04:08:02.462Z,0.00
2018-11-01T04:09:02.454Z,0.00
2018-11-01T04:10:02.451Z,0.00
2018-11-01T04:11:02.443Z,0.00
2018-11-01T04:12:02.443Z,0.00
2018-11-01T04:13:02.425Z,0.00
2018-11-01T04:14:02.420Z,0.00
2018-11-01T04:15:02.483Z,0.00
2018-11-01T04:16:02.425Z,0.00
2018-11-01T04:17:02.427Z,0.00
2018-11-01T04:18:02.389Z,0.00
2018-11-01T04:19:02.385Z,0.00
2018-11-01T04:20:02.375Z,0.00
2018-11-01T04:21:02.371Z,0.00
2018-11-01T04:22:02.364Z,0.00
2018-11-01T04:23:02.385Z,0.00
2018-11-01T04:24:02.348Z,0.00
2018-11-01T04:25:02.337Z,0.00
2018-11-01T04:26:02.318Z,0.00
2018-11-01T04:27:02.322Z,0.00
2018-11-01T04:28:02.320Z,0.00
2018-11-01T04:29:02.349Z,0.00
2018-11-01T04:30:02.305Z,0.00
2018-11-01T04:31:02.292Z,0.00
2018-11-01T04:32:02.286Z,0.00
2018-11-01T04:33:02.369Z,0.00
2018-11-01T04:34:02.268Z,0.00
2018-11-01T04:35:02.264Z,0.00
2018-11-01T04:36:02.267Z,0.00
2018-11-01T04:37:02.239Z,0.00
2018-11-01T04:38:02.231Z,0.00
2018-11-01T04:39:02.223Z,0.00
2018-11-01T04:40:02.216Z,0.00
2018-11-01T04:41:02.209Z,0.00
2018-11-01T04:42:02.198Z,0.00
2018-11-01T04:43:02.205Z,0.00
2018-11-01T04:44:02.207Z,0.00
2018-11-01T04:45:02.178Z,0.00
2018-11-01T04:46:02.170Z,0.00
2018-11-01T04:47:02.216Z,0.00
2018-11-01T04:48:02.172Z,0.00
2018-11-01T04:49:02.149Z,0.00
2018-11-01T04:50:02.142Z,0.00
2018-11-01T04:51:02.134Z,0.00
2018-11-01T04:52:02.127Z,0.00
2018-11-01T04:53:02.117Z,0.00
2018-11-01T04:54:02.112Z,0.00
2018-11-01T04:55:02.104Z,0.00
2018-11-01T04:56:02.095Z,0.00
2018-11-01T04:57:02.096Z,0.00
2018-11-01T04:58:02.084Z,0.00
2018-11-01T04:59:02.077Z,0.00
2018-11-01T05:00:02.067Z,0.00
2018-11-01T05:01:02.064Z,0.00
2018-11-01T05:02:02.053Z,0.00
2018-11-01T05:03:02.045Z,0.00
2018-11-01T05:04:02.037Z,0.00
2018-11-01T05:05:02.062Z,0.00
2018-11-01T05:06:02.023Z,0.00
2018-11-01T05:07:02.013Z,0.00
2018-11-01T05:08:02.126Z,0.00
2018-11-01T05:09:02.005Z,0.00
2018-11-01T05:10:02.006Z,0.00
2018-11-01T05:11:01.987Z,0.00
2018-11-01T05:12:01.978Z,0.00
2018-11-01T05:13:01.988Z,0.00
2018-11-01T05:14:01.963Z,0.00
2018-11-01T05:15:02.003Z,0.00
2018-11-01T05:16:27.013Z,0.00
2018-11-01T05:17:26.910Z,0.00
2018-11-01T05:19:20.297Z,0.00
2018-11-01T05:20:20.335Z,0.00
2018-11-01T05:22:13.325Z,0.00
2018-11-01T05:23:13.145Z,0.00
2018-11-01T05:25:06.016Z,0.00
2018-11-01T05:26:05.981Z,0.00
2018-11-01T05:27:59.065Z,0.00
2018-11-01T05:28:58.836Z,0.00
2018-11-01T05:30:52.327Z,0.00
2018-11-01T05:31:52.173Z,0.00
2018-11-01T05:33:45.608Z,0.00
2018-11-01T05:34:45.552Z,0.00
2018-11-01T05:36:38.418Z,0.00
2018-11-01T05:37:38.395Z,0.00
2018-11-01T05:39:31.773Z,4.00
2018-11-01T05:40:31.738Z,0.00
2018-11-01T05:42:24.598Z,4.00
2018-11-01T05:43:24.603Z,4.00
2018-11-01T05:45:17.943Z,4.00
2018-11-01T05:46:17.928Z,4.00
2018-11-01T05:48:10.830Z,8.00
2018-11-01T05:49:10.765Z,8.00
2018-11-01T05:51:04.133Z,12.00
2018-11-01T05:52:04.129Z,12.00
2018-11-01T05:53:57.485Z,16.00
2018-11-01T05:54:57.498Z,16.00
2018-11-01T05:56:50.841Z,24.00
2018-11-01T05:57:50.816Z,28.00
2018-11-01T05:59:44.256Z,32.00
2018-11-01T06:00:44.160Z,36.00
2018-11-01T06:02:37.028Z,44.00
2018-11-01T06:03:37.015Z,48.00
2018-11-01T06:04:37.006Z,48.00
2018-11-01T06:05:37.043Z,48.00
2018-11-01T06:06:36.992Z,56.00
2018-11-01T06:07:36.987Z,56.00
2018-11-01T06:08:36.982Z,64.00
2018-11-01T06:09:36.978Z,68.00
2018-11-01T06:10:36.963Z,72.00
2018-11-01T06:11:36.961Z,76.00
2018-11-01T06:12:36.948Z,84.00
2018-11-01T06:13:36.939Z,92.00
2018-11-01T06:14:36.931Z,100.00
2018-11-01T06:15:36.937Z,108.00
2018-11-01T06:16:37.125Z,116.00
2018-11-01T06:17:36.911Z,120.00
2018-11-01T06:18:36.991Z,128.00
2018-11-01T06:19:36.896Z,136.00
2018-11-01T06:20:36.933Z,136.00
2018-11-01T06:21:36.894Z,144.00
2018-11-01T06:22:36.881Z,152.00
2018-11-01T06:23:36.875Z,160.00
2018-11-01T06:24:36.859Z,168.00
2018-11-01T06:25:36.853Z,176.00
2018-11-01T06:26:36.849Z,184.00
2018-11-01T06:27:36.839Z,192.00
2018-11-01T06:28:36.846Z,204.00
2018-11-01T06:29:36.825Z,212.00
2018-11-01T06:30:36.817Z,220.00
2018-11-01T06:31:36.817Z,232.00
2018-11-01T06:32:36.809Z,240.00
2018-11-01T06:33:36.809Z,252.00
2018-11-01T06:34:36.795Z,260.00
2018-11-01T06:35:36.785Z,272.00
2018-11-01T06:36:36.786Z,284.00
2018-11-01T06:37:36.773Z,292.00
2018-11-01T06:38:36.812Z,304.00
2018-11-01T06:39:36.777Z,312.00
2018-11-01T06:40:36.753Z,320.00
2018-11-01T06:41:36.754Z,332.00
2018-11-01T06:42:36.745Z,340.00
2018-11-01T06:43:36.731Z,344.00
2018-11-01T06:44:36.742Z,352.00
2018-11-01T06:45:36.745Z,360.00
2018-11-01T06:46:36.715Z,368.00
2018-11-01T06:47:36.765Z,376.00
2018-11-01T06:48:36.683Z,396.00
2018-11-01T06:49:36.687Z,408.00
2018-11-01T06:50:36.673Z,420.00
2018-11-01T06:51:36.666Z,436.00
2018-11-01T06:52:36.716Z,452.00
2018-11-01T06:53:36.652Z,468.00
2018-11-01T06:54:36.652Z,496.00
2018-11-01T06:55:36.637Z,516.00
2018-11-01T06:56:36.629Z,536.00
2018-11-01T06:57:36.624Z,560.00
2018-11-01T06:58:36.752Z,584.00
2018-11-01T06:59:36.791Z,608.00
2018-11-01T07:00:36.603Z,640.00
2018-11-01T07:01:36.595Z,664.00
2018-11-01T07:02:36.592Z,688.00
2018-11-01T07:03:36.592Z,704.00
2018-11-01T07:04:36.574Z,712.00
2018-11-01T07:05:36.620Z,728.00
2018-11-01T07:06:36.557Z,736.00
2018-11-01T07:07:36.554Z,736.00
2018-11-01T07:08:36.544Z,744.00
2018-11-01T07:09:36.539Z,748.00
2018-11-01T07:10:36.536Z,756.00
2018-11-01T07:11:36.614Z,760.00
2018-11-01T07:12:36.521Z,764.00
2018-11-01T07:13:36.516Z,772.00
2018-11-01T07:14:36.510Z,776.00
2018-11-01T07:15:36.503Z,784.00
2018-11-01T07:16:36.492Z,792.00
2018-11-01T07:17:36.627Z,800.00
2018-11-01T07:18:36.480Z,812.00
2018-11-01T07:19:36.476Z,828.00
2018-11-01T07:20:36.466Z,840.00
2018-11-01T07:21:36.462Z,860.00
2018-11-01T07:22:36.454Z,868.00
2018-11-01T07:23:36.446Z,880.00
2018-11-01T07:24:36.445Z,896.00
2018-11-01T07:25:36.551Z,900.00
2018-11-01T07:26:36.568Z,916.00
2018-11-01T07:27:36.426Z,932.00
2018-11-01T07:28:36.416Z,956.00
2018-11-01T07:29:36.411Z,976.00
2018-11-01T07:30:36.424Z,992.00
2018-11-01T07:31:36.400Z,984.00
2018-11-01T07:32:36.405Z,980.00
2018-11-01T07:33:36.385Z,992.00
2018-11-01T07:34:36.381Z,1028.00
2018-11-01T07:35:36.373Z,1092.00
2018-11-01T07:36:36.368Z,1132.00
2018-11-01T07:37:36.395Z,1164.00
2018-11-01T07:38:36.358Z,1208.00
2018-11-01T07:39:36.394Z,1260.00
2018-11-01T07:40:36.344Z,1320.00
2018-11-01T07:41:36.339Z,1392.00
2018-11-01T07:42:36.333Z,1460.00
2018-11-01T07:43:36.322Z,1548.00
2018-11-01T07:44:36.321Z,1652.00
2018-11-01T07:45:36.312Z,1756.00
2018-11-01T07:46:36.309Z,1880.00
2018-11-01T07:47:36.304Z,2016.00
2018-11-01T07:48:36.314Z,2148.00
2018-11-01T07:49:36.291Z,2288.00
2018-11-01T07:50:36.285Z,2436.00
2018-11-01T07:51:36.296Z,2588.00
2018-11-01T07:52:36.280Z,2740.00
2018-11-01T07:53:36.271Z,2876.00
2018-11-01T07:54:36.263Z,2996.00
2018-11-01T07:55:36.258Z,3096.00
2018-11-01T07:56:36.252Z,3212.00
2018-11-01T07:57:36.248Z,3284.00
2018-11-01T07:58:36.261Z,3360.00
2018-11-01T07:59:36.237Z,3432.00
2018-11-01T08:00:36.234Z,3456.00
2018-11-01T08:01:36.232Z,3480.00
2018-11-01T08:02:36.222Z,3536.00
2018-11-01T08:03:36.218Z,3672.00
2018-11-01T08:04:36.214Z,4360.00
2018-11-01T08:05:36.261Z,4424.00
2018-11-01T08:06:36.204Z,4820.00
2018-11-01T08:07:36.202Z,5432.00
2018-11-01T08:08:36.197Z,5480.00
2018-11-01T08:09:36.198Z,4948.00
2018-11-01T08:10:36.192Z,4368.00
2018-11-01T08:11:36.240Z,3684.00
2018-11-01T08:12:36.187Z,3540.00
2018-11-01T08:13:36.188Z,3416.00
2018-11-01T08:14:36.173Z,3352.00
2018-11-01T08:15:36.171Z,3300.00
2018-11-01T08:16:36.179Z,3260.00
2018-11-01T08:17:36.169Z,3212.00
2018-11-01T08:18:36.164Z,3176.00
2018-11-01T08:19:36.215Z,3200.00
2018-11-01T08:20:36.227Z,3228.00
2018-11-01T08:21:36.152Z,3128.00
2018-11-01T08:22:36.153Z,2996.00
2018-11-01T08:23:36.162Z,2932.00
2018-11-01T08:24:36.146Z,2864.00
2018-11-01T08:25:36.141Z,2808.00
2018-11-01T08:26:36.143Z,2764.00
2018-11-01T08:27:36.139Z,2720.00
2018-11-01T08:28:36.137Z,2664.00
2018-11-01T08:29:36.132Z,2604.00
2018-11-01T08:30:36.145Z,2536.00
2018-11-01T08:31:36.146Z,2468.00
2018-11-01T08:32:36.128Z,2388.00
2018-11-01T08:33:36.127Z,2320.00
2018-11-01T08:34:36.123Z,2256.00
2018-11-01T08:35:36.118Z,2180.00
2018-11-01T08:36:36.119Z,2124.00
2018-11-01T08:37:36.128Z,2048.00
2018-11-01T08:38:36.137Z,1988.00
2018-11-01T08:39:36.110Z,1960.00
2018-11-01T08:40:36.106Z,1932.00
2018-11-01T08:41:36.109Z,1880.00
2018-11-01T08:42:36.109Z,1892.00
2018-11-01T08:43:36.103Z,1932.00
2018-11-01T08:44:36.100Z,1892.00
2018-11-01T08:45:36.097Z,1860.00
2018-11-01T08:46:36.093Z,1736.00
2018-11-01T08:47:36.092Z,1636.00
2018-11-01T08:48:36.091Z,1616.00
2018-11-01T08:49:36.275Z,1604.00
2018-11-01T08:50:36.084Z,1540.00
2018-11-01T08:51:36.083Z,1476.00
2018-11-01T08:52:36.079Z,1464.00
2018-11-01T08:53:36.077Z,1464.00
2018-11-01T08:54:36.078Z,1512.00
2018-11-01T08:55:36.076Z,1552.00
2018-11-01T08:56:36.074Z,1548.00
2018-11-01T08:57:36.071Z,1428.00
2018-11-01T08:58:36.068Z,1480.00
2018-11-01T08:59:36.062Z,1412.00
2018-11-01T09:00:36.063Z,1348.00
2018-11-01T09:01:36.110Z,1316.00
2018-11-01T09:02:36.063Z,1296.00
2018-11-01T09:03:36.054Z,1308.00
2018-11-01T09:04:36.051Z,1288.00
2018-11-01T09:05:36.050Z,1288.00
2018-11-01T09:06:36.064Z,1260.00
2018-11-01T09:07:36.102Z,1256.00
2018-11-01T09:08:36.043Z,1212.00
2018-11-01T09:09:36.042Z,1180.00
2018-11-01T09:10:36.094Z,1180.00
2018-11-01T09:11:36.034Z,1192.00
2018-11-01T09:12:36.081Z,1192.00
2018-11-01T09:13:36.027Z,1172.00
2018-11-01T09:14:36.079Z,1120.00
2018-11-01T09:15:36.027Z,1060.00
2018-11-01T09:16:36.021Z,1004.00
2018-11-01T09:17:36.021Z,940.00
2018-11-01T09:18:36.021Z,876.00
2018-11-01T09:19:36.018Z,804.00
2018-11-01T09:20:36.011Z,748.00
2018-11-01T09:21:36.010Z,696.00
2018-11-01T09:22:36.015Z,652.00
2018-11-01T09:23:36.004Z,616.00
2018-11-01T09:24:36.009Z,592.00
2018-11-01T09:25:36.007Z,576.00
2018-11-01T09:26:35.997Z,556.00
2018-11-01T09:27:35.996Z,540.00
2018-11-01T09:28:35.993Z,528.00
2018-11-01T09:29:35.991Z,516.00
2018-11-01T09:30:35.996Z,508.00
2018-11-01T09:31:35.991Z,508.00
2018-11-01T09:32:36.014Z,512.00
2018-11-01T09:33:35.979Z,520.00
2018-11-01T09:34:35.978Z,528.00
2018-11-01T09:35:36.010Z,524.00
2018-11-01T09:36:35.994Z,532.00
2018-11-01T09:37:35.972Z,532.00
2018-11-01T09:38:35.970Z,536.00
2018-11-01T09:39:35.995Z,544.00
2018-11-01T09:40:35.962Z,548.00
2018-11-01T09:41:35.961Z,556.00
2018-11-01T09:42:35.957Z,560.00
2018-11-01T09:43:35.958Z,564.00
2018-11-01T09:44:35.966Z,572.00
2018-11-01T09:45:35.955Z,576.00
2018-11-01T09:46:36.072Z,584.00
2018-11-01T09:47:36.395Z,588.00
2018-11-01T09:48:35.960Z,596.00
2018-11-01T09:49:35.941Z,604.00
2018-11-01T09:50:35.937Z,616.00
2018-11-01T09:51:35.939Z,628.00
2018-11-01T09:52:35.938Z,640.00
2018-11-01T09:53:35.932Z,652.00
2018-11-01T09:54:38.601Z,664.00
2018-11-01T09:55:35.994Z,680.00
2018-11-01T09:56:36.092Z,692.00
2018-11-01T09:57:35.922Z,708.00
2018-11-01T09:58:35.946Z,728.00
2018-11-01T09:59:35.946Z,740.00
2018-11-01T10:00:35.942Z,756.00
2018-11-01T10:01:35.911Z,772.00
2018-11-01T10:02:35.942Z,784.00
2018-11-01T10:03:35.911Z,796.00
2018-11-01T10:04:35.919Z,804.00
2018-11-01T10:05:35.901Z,808.00
2018-11-01T10:06:35.902Z,816.00
2018-11-01T10:07:35.913Z,824.00
2018-11-01T10:08:35.899Z,836.00
2018-11-01T10:09:35.902Z,852.00
2018-11-01T10:10:35.891Z,864.00
2018-11-01T10:11:35.892Z,876.00
2018-11-01T10:12:35.918Z,872.00
2018-11-01T10:13:35.884Z,860.00
2018-11-01T10:14:35.885Z,848.00
2018-11-01T10:15:36.014Z,836.00
2018-11-01T10:16:36.023Z,828.00
2018-11-01T10:17:36.266Z,820.00
2018-11-01T10:18:35.874Z,824.00
2018-11-01T10:19:35.872Z,828.00
2018-11-01T10:20:35.875Z,836.00
2018-11-01T10:21:35.868Z,844.00
2018-11-01T10:22:39.024Z,864.00
2018-11-01T10:23:35.871Z,884.00
2018-11-01T10:24:35.861Z,892.00
2018-11-01T10:25:35.858Z,900.00
2018-11-01T10:26:35.855Z,904.00
2018-11-01T10:27:35.884Z,900.00
2018-11-01T10:28:35.865Z,904.00
2018-11-01T10:29:35.858Z,912.00
2018-11-01T10:30:35.859Z,924.00
2018-11-01T10:31:35.845Z,936.00
2018-11-01T10:32:35.852Z,952.00
2018-11-01T10:33:35.842Z,964.00
2018-11-01T10:34:35.844Z,964.00
2018-11-01T10:35:35.880Z,952.00
2018-11-01T10:36:35.840Z,940.00
2018-11-01T10:37:35.835Z,932.00
2018-11-01T10:38:35.832Z,928.00
2018-11-01T10:39:35.832Z,924.00
2018-11-01T10:40:35.842Z,924.00
2018-11-01T10:41:35.828Z,924.00
2018-11-01T10:42:35.827Z,928.00
2018-11-01T10:43:35.824Z,936.00
2018-11-01T10:44:35.821Z,940.00
2018-11-01T10:45:35.819Z,948.00
2018-11-01T10:46:35.816Z,952.00
2018-11-01T10:47:35.837Z,948.00
2018-11-01T10:48:35.813Z,944.00
2018-11-01T10:49:35.809Z,936.00
2018-11-01T10:50:35.809Z,932.00
2018-11-01T10:51:35.807Z,924.00
2018-11-01T10:52:35.805Z,924.00
2018-11-01T10:53:35.829Z,916.00
2018-11-01T10:54:35.800Z,916.00
2018-11-01T10:55:35.802Z,912.00
2018-11-01T10:56:35.798Z,904.00
2018-11-01T10:57:35.798Z,892.00
2018-11-01T10:58:36.612Z,876.00
2018-11-01T10:59:35.806Z,864.00
2018-11-01T11:00:35.903Z,860.00
2018-11-01T11:01:35.786Z,864.00
2018-11-01T11:02:35.788Z,876.00
2018-11-01T11:03:35.786Z,884.00
2018-11-01T11:04:35.784Z,892.00
2018-11-01T11:05:35.782Z,904.00
2018-11-01T11:06:35.809Z,920.00
2018-11-01T11:07:35.778Z,944.00
2018-11-01T11:08:37.609Z,960.00
2018-11-01T11:09:35.772Z,964.00
2018-11-01T11:10:35.778Z,964.00
2018-11-01T11:11:35.772Z,948.00
2018-11-01T11:12:35.771Z,928.00
2018-11-01T11:13:35.781Z,916.00
2018-11-01T11:14:35.789Z,896.00
2018-11-01T11:15:35.768Z,868.00
2018-11-01T11:16:35.764Z,852.00
2018-11-01T11:17:35.762Z,824.00
2018-11-01T11:18:35.779Z,828.00
2018-11-01T11:19:35.767Z,876.00
2018-11-01T11:20:35.978Z,900.00
2018-11-01T11:21:35.755Z,948.00
2018-11-01T11:22:35.755Z,1000.00
2018-11-01T11:23:35.755Z,1044.00
2018-11-01T11:24:35.753Z,1088.00
2018-11-01T11:25:35.749Z,1112.00
2018-11-01T11:26:35.755Z,1136.00
2018-11-01T11:27:35.747Z,1216.00
2018-11-01T11:28:35.756Z,1280.00
2018-11-01T11:29:35.743Z,1440.00
2018-11-01T11:30:35.835Z,1648.00
2018-11-01T11:31:35.743Z,1932.00
2018-11-01T11:32:35.742Z,2288.00
2018-11-01T11:33:35.741Z,2696.00
2018-11-01T11:34:35.741Z,3128.00
2018-11-01T11:35:35.775Z,3544.00
2018-11-01T11:36:35.738Z,3868.00
2018-11-01T11:37:35.734Z,4072.00
2018-11-01T11:38:35.739Z,4016.00
2018-11-01T11:39:35.825Z,4004.00
2018-11-01T11:40:35.733Z,3788.00
2018-11-01T11:41:35.731Z,3588.00
2018-11-01T11:42:35.732Z,3332.00
2018-11-01T11:43:35.729Z,3124.00
2018-11-01T11:44:35.730Z,2860.00
2018-11-01T11:45:35.729Z,2688.00
2018-11-01T11:46:35.749Z,2548.00
2018-11-01T11:47:35.729Z,2368.00
2018-11-01T11:48:35.731Z,2544.00
2018-11-01T11:49:35.730Z,2584.00
2018-11-01T11:50:35.732Z,2700.00
2018-11-01T11:51:35.858Z,2884.00
2018-11-01T11:52:35.730Z,3116.00
2018-11-01T11:53:35.730Z,3364.00
2018-11-01T11:54:35.729Z,3548.00
2018-11-01T11:55:35.729Z,3704.00
2018-11-01T11:56:35.727Z,3884.00
2018-11-01T11:57:35.725Z,3904.00
2018-11-01T11:58:35.734Z,3752.00
2018-11-01T11:59:35.733Z,3616.00
2018-11-01T12:00:35.739Z,3428.00
2018-11-01T12:01:35.733Z,3336.00
2018-11-01T12:02:35.729Z,3408.00
2018-11-01T12:03:35.734Z,3548.00
2018-11-01T12:04:35.732Z,3768.00
2018-11-01T12:05:35.847Z,3720.00
2018-11-01T12:06:35.734Z,3628.00
2018-11-01T12:07:35.739Z,3468.00
2018-11-01T12:08:35.735Z,3256.00
2018-11-01T12:09:35.739Z,3192.00
2018-11-01T12:10:35.740Z,3080.00
2018-11-01T12:11:35.738Z,3080.00
2018-11-01T12:12:35.737Z,2948.00
2018-11-01T12:13:35.739Z,2940.00
2018-11-01T12:14:35.746Z,2924.00
2018-11-01T12:15:35.742Z,2840.00
2018-11-01T12:16:35.743Z,2884.00
2018-11-01T12:17:35.742Z,2824.00
2018-11-01T12:18:35.747Z,2880.00
2018-11-01T12:19:35.747Z,2764.00
2018-11-01T12:20:35.748Z,2680.00
2018-11-01T12:21:35.750Z,2640.00
2018-11-01T12:22:35.771Z,2648.00
2018-11-01T12:23:35.753Z,2616.00
2018-11-01T12:24:35.752Z,2580.00
2018-11-01T12:25:35.752Z,2456.00
2018-11-01T12:26:35.754Z,2440.00
2018-11-01T12:27:35.757Z,2380.00
2018-11-01T12:28:35.852Z,2352.00
2018-11-01T12:29:35.758Z,2352.00
2018-11-01T12:30:35.761Z,2388.00
2018-11-01T12:31:35.761Z,2456.00
2018-11-01T12:32:35.760Z,2548.00
2018-11-01T12:33:35.765Z,2576.00
2018-11-01T12:34:35.771Z,2616.00
2018-11-01T12:35:35.866Z,2688.00
2018-11-01T12:36:35.769Z,2760.00
2018-11-01T12:37:35.772Z,2848.00
2018-11-01T12:38:35.772Z,2968.00
2018-11-01T12:39:35.773Z,3060.00
2018-11-01T12:40:35.775Z,3216.00
2018-11-01T12:41:35.860Z,3212.00
2018-11-01T12:42:35.779Z,3252.00
2018-11-01T12:43:35.780Z,2984.00
2018-11-01T12:44:35.779Z,3112.00
2018-11-01T12:45:35.785Z,2848.00
2018-11-01T12:46:35.785Z,2832.00
2018-11-01T12:47:35.793Z,2952.00
2018-11-01T12:48:35.788Z,2944.00
2018-11-01T12:49:35.836Z,2772.00
2018-11-01T12:50:35.796Z,2664.00
2018-11-01T12:51:35.792Z,2564.00
2018-11-01T12:52:35.800Z,2884.00
2018-11-01T12:53:35.794Z,2920.00
2018-11-01T12:54:35.798Z,2944.00
2018-11-01T12:55:35.798Z,2968.00
2018-11-01T12:56:35.805Z,2980.00
2018-11-01T12:57:35.805Z,3004.00
2018-11-01T12:58:35.808Z,3008.00